Search for airport 
image banner adimage banner adimage banner ad
image banner ad

O37 - Haigh Field

Located in Orland, United States

ICAO - O37, IATA -

Data provided by Airmate  

General information

Coordinates: N39°43'13" W122°8'47"
Elevation is 218 feet MSL.
Magnetic variation is 14° East
View others Airports in California

Operational data

Special qualification required
Current time UTC:
Current local time:
Weather at : KCIC - Chico Muni ( 26 km )
METAR: KCIC 240935Z AUTO 15007KT 10SM CLR 22/10 A2992 RMK AO1
View NOTAMs / SUP AIP / TFR affecting this airport [VIEW]
Communications frequencies: [VIEW]

Runways:

RWY identifierQFULength (ft)Width (ft)SurfaceLDA (ft)
15166°450060ASPH
33346°450060ASPH

Airport contact information

Address: Orland United States

Satellite view of O37